Weather at Palma de Mallorca Airport

Public forecast

Using degrees Celsius for public forecast. Weather courtesy of forecast.io.

Current aviation weather report (METAR) for Palma de Mallorca Airport

Report is more than 6 hours old.

2022/11/14 15:30 (retrieved 2 years ago)

LEPA 141530Z 22010KT 9999 FEW018 FEW040TCU 21/18 Q1017 NOSIG

Aviation forecast (TAF) for Palma de Mallorca Airport

Forecast is more than 12 hours old.

2023/02/22 18:27 (retrieved 1 year ago)

TAF LEPA 221700Z 2218/2318 21007KT 9999 SCT010 TX17/2312Z TN06/2306Z PROB40 TEMPO 2218/2310 2000 BR TEMPO 2218/2312 BKN014 BECMG 2218/2220 VRB04KT PROB30 TEMPO 2218/2308 0600 FG VV002